sensor_id;sensor_type;location;lat;lon;timestamp;P1;durP1;ratioP1;P2;durP2;ratioP2
74044;SDS011;62389;51.412;5.436;2023-03-19T00:02:01;2.28;;;1.52;;
74044;SDS011;62389;51.412;5.436;2023-03-19T00:04:26;2.88;;;1.40;;
74044;SDS011;62389;51.412;5.436;2023-03-19T00:06:52;3.97;;;1.77;;
74044;SDS011;62389;51.412;5.436;2023-03-19T00:09:18;3.17;;;1.38;;
74044;SDS011;62389;51.412;5.436;2023-03-19T00:11:44;3.40;;;1.80;;
74044;SDS011;62389;51.412;5.436;2023-03-19T00:14:10;3.05;;;2.00;;
74044;SDS011;62389;51.412;5.436;2023-03-19T00:16:35;4.22;;;1.90;;
74044;SDS011;62389;51.412;5.436;2023-03-19T00:19:01;3.45;;;1.80;;
74044;SDS011;62389;51.412;5.436;2023-03-19T00:21:28;3.67;;;2.35;;
74044;SDS011;62389;51.412;5.436;2023-03-19T00:23:53;3.40;;;1.70;;
74044;SDS011;62389;51.412;5.436;2023-03-19T00:26:21;3.88;;;1.58;;
74044;SDS011;62389;51.412;5.436;2023-03-19T00:28:46;3.47;;;2.22;;
74044;SDS011;62389;51.412;5.436;2023-03-19T00:31:15;4.55;;;2.15;;
74044;SDS011;62389;51.412;5.436;2023-03-19T00:33:41;4.20;;;1.77;;
74044;SDS011;62389;51.412;5.436;2023-03-19T00:36:07;5.10;;;2.88;;
74044;SDS011;62389;51.412;5.436;2023-03-19T00:38:33;3.17;;;1.70;;
74044;SDS011;62389;51.412;5.436;2023-03-19T00:41:00;3.53;;;2.00;;
74044;SDS011;62389;51.412;5.436;2023-03-19T00:43:26;3.55;;;1.80;;
74044;SDS011;62389;51.412;5.436;2023-03-19T00:45:52;3.80;;;1.88;;
74044;SDS011;62389;51.412;5.436;2023-03-19T00:48:17;2.67;;;1.63;;
74044;SDS011;62389;51.412;5.436;2023-03-19T00:50:42;3.83;;;1.70;;
74044;SDS011;62389;51.412;5.436;2023-03-19T00:53:08;3.85;;;1.92;;
74044;SDS011;62389;51.412;5.436;2023-03-19T00:55:33;3.90;;;1.98;;
74044;SDS011;62389;51.412;5.436;2023-03-19T00:57:59;3.25;;;2.28;;
74044;SDS011;62389;51.412;5.436;2023-03-19T01:00:25;4.28;;;1.65;;
74044;SDS011;62389;51.412;5.436;2023-03-19T01:02:50;4.75;;;2.10;;
74044;SDS011;62389;51.412;5.436;2023-03-19T01:05:16;5.43;;;2.25;;
74044;SDS011;62389;51.412;5.436;2023-03-19T01:07:41;3.58;;;1.92;;
74044;SDS011;62389;51.412;5.436;2023-03-19T01:10:07;3.53;;;2.17;;
74044;SDS011;62389;51.412;5.436;2023-03-19T01:12:33;5.30;;;2.38;;
74044;SDS011;62389;51.412;5.436;2023-03-19T01:14:59;4.88;;;2.50;;
74044;SDS011;62389;51.412;5.436;2023-03-19T01:17:25;3.58;;;2.40;;
74044;SDS011;62389;51.412;5.436;2023-03-19T01:19:50;3.42;;;2.28;;
74044;SDS011;62389;51.412;5.436;2023-03-19T01:22:16;4.60;;;2.53;;
74044;SDS011;62389;51.412;5.436;2023-03-19T01:24:42;4.78;;;2.40;;
74044;SDS011;62389;51.412;5.436;2023-03-19T01:27:07;5.10;;;2.50;;
74044;SDS011;62389;51.412;5.436;2023-03-19T01:29:33;4.72;;;2.78;;
74044;SDS011;62389;51.412;5.436;2023-03-19T01:31:58;6.38;;;2.42;;
74044;SDS011;62389;51.412;5.436;2023-03-19T01:34:24;4.43;;;2.47;;
74044;SDS011;62389;51.412;5.436;2023-03-19T01:36:50;4.13;;;2.38;;
74044;SDS011;62389;51.412;5.436;2023-03-19T01:39:16;4.57;;;3.83;;
74044;SDS011;62389;51.412;5.436;2023-03-19T01:41:42;5.95;;;2.58;;
74044;SDS011;62389;51.412;5.436;2023-03-19T01:46:53;3.92;;;2.80;;
74044;SDS011;62389;51.412;5.436;2023-03-19T01:49:18;4.35;;;2.75;;
74044;SDS011;62389;51.412;5.436;2023-03-19T01:51:46;4.88;;;2.97;;
74044;SDS011;62389;51.412;5.436;2023-03-19T01:54:13;5.40;;;2.88;;
74044;SDS011;62389;51.412;5.436;2023-03-19T01:56:41;4.78;;;2.90;;
74044;SDS011;62389;51.412;5.436;2023-03-19T01:59:10;4.63;;;2.80;;
74044;SDS011;62389;51.412;5.436;2023-03-19T02:01:45;4.78;;;3.00;;
74044;SDS011;62389;51.412;5.436;2023-03-19T02:04:15;4.60;;;2.90;;
74044;SDS011;62389;51.412;5.436;2023-03-19T02:06:41;5.40;;;3.75;;
74044;SDS011;62389;51.412;5.436;2023-03-19T02:09:08;5.90;;;3.72;;
74044;SDS011;62389;51.412;5.436;2023-03-19T02:11:34;4.82;;;3.08;;
74044;SDS011;62389;51.412;5.436;2023-03-19T02:14:00;3.83;;;3.05;;
74044;SDS011;62389;51.412;5.436;2023-03-19T02:16:26;5.50;;;3.20;;
74044;SDS011;62389;51.412;5.436;2023-03-19T02:18:51;5.03;;;2.97;;
74044;SDS011;62389;51.412;5.436;2023-03-19T02:21:17;5.28;;;3.38;;
74044;SDS011;62389;51.412;5.436;2023-03-19T02:26:30;6.68;;;4.45;;
74044;SDS011;62389;51.412;5.436;2023-03-19T02:28:56;5.30;;;3.50;;
74044;SDS011;62389;51.412;5.436;2023-03-19T02:31:22;5.68;;;3.40;;
74044;SDS011;62389;51.412;5.436;2023-03-19T02:33:57;6.57;;;3.10;;
74044;SDS011;62389;51.412;5.436;2023-03-19T02:36:23;4.90;;;3.40;;
74044;SDS011;62389;51.412;5.436;2023-03-19T02:38:53;5.85;;;3.10;;
74044;SDS011;62389;51.412;5.436;2023-03-19T02:41:21;5.68;;;3.20;;
74044;SDS011;62389;51.412;5.436;2023-03-19T02:43:47;5.63;;;3.30;;
74044;SDS011;62389;51.412;5.436;2023-03-19T02:46:13;4.28;;;2.90;;
74044;SDS011;62389;51.412;5.436;2023-03-19T02:48:39;5.82;;;3.05;;
74044;SDS011;62389;51.412;5.436;2023-03-19T02:51:05;7.57;;;4.45;;
74044;SDS011;62389;51.412;5.436;2023-03-19T02:53:30;5.95;;;3.30;;
74044;SDS011;62389;51.412;5.436;2023-03-19T02:55:56;5.82;;;3.40;;
74044;SDS011;62389;51.412;5.436;2023-03-19T02:58:21;6.20;;;3.38;;
74044;SDS011;62389;51.412;5.436;2023-03-19T03:00:47;9.25;;;4.38;;
74044;SDS011;62389;51.412;5.436;2023-03-19T03:03:12;5.40;;;3.28;;
74044;SDS011;62389;51.412;5.436;2023-03-19T03:05:37;5.80;;;3.72;;
74044;SDS011;62389;51.412;5.436;2023-03-19T03:08:03;5.10;;;3.13;;
74044;SDS011;62389;51.412;5.436;2023-03-19T03:10:29;5.75;;;3.78;;
74044;SDS011;62389;51.412;5.436;2023-03-19T03:12:56;5.55;;;3.55;;
74044;SDS011;62389;51.412;5.436;2023-03-19T03:15:22;5.75;;;3.80;;
74044;SDS011;62389;51.412;5.436;2023-03-19T03:17:47;6.70;;;3.40;;
74044;SDS011;62389;51.412;5.436;2023-03-19T03:20:13;5.50;;;3.72;;
74044;SDS011;62389;51.412;5.436;2023-03-19T03:22:41;5.90;;;3.33;;
74044;SDS011;62389;51.412;5.436;2023-03-19T03:25:08;5.72;;;3.40;;
74044;SDS011;62389;51.412;5.436;2023-03-19T03:27:34;7.70;;;3.85;;
74044;SDS011;62389;51.412;5.436;2023-03-19T03:30:00;7.80;;;3.72;;
74044;SDS011;62389;51.412;5.436;2023-03-19T03:32:26;6.43;;;3.95;;
74044;SDS011;62389;51.412;5.436;2023-03-19T03:34:51;7.53;;;3.88;;
74044;SDS011;62389;51.412;5.436;2023-03-19T03:37:17;5.88;;;4.15;;
74044;SDS011;62389;51.412;5.436;2023-03-19T03:39:43;5.68;;;4.43;;
74044;SDS011;62389;51.412;5.436;2023-03-19T03:42:08;7.63;;;4.20;;
74044;SDS011;62389;51.412;5.436;2023-03-19T03:44:34;5.70;;;3.50;;
74044;SDS011;62389;51.412;5.436;2023-03-19T03:47:00;8.35;;;3.78;;
74044;SDS011;62389;51.412;5.436;2023-03-19T03:49:25;5.97;;;3.55;;
74044;SDS011;62389;51.412;5.436;2023-03-19T03:51:51;5.15;;;3.42;;
74044;SDS011;62389;51.412;5.436;2023-03-19T03:54:16;6.65;;;4.75;;
74044;SDS011;62389;51.412;5.436;2023-03-19T03:56:42;5.75;;;4.03;;
74044;SDS011;62389;51.412;5.436;2023-03-19T03:59:07;6.30;;;4.05;;
74044;SDS011;62389;51.412;5.436;2023-03-19T04:01:33;6.80;;;4.05;;
74044;SDS011;62389;51.412;5.436;2023-03-19T04:03:59;7.22;;;5.32;;
74044;SDS011;62389;51.412;5.436;2023-03-19T04:06:25;6.38;;;4.15;;
74044;SDS011;62389;51.412;5.436;2023-03-19T04:08:52;8.25;;;4.82;;
74044;SDS011;62389;51.412;5.436;2023-03-19T04:11:18;8.52;;;4.55;;
74044;SDS011;62389;51.412;5.436;2023-03-19T04:13:43;8.15;;;4.70;;
74044;SDS011;62389;51.412;5.436;2023-03-19T04:16:09;9.30;;;4.55;;
74044;SDS011;62389;51.412;5.436;2023-03-19T04:18:35;9.52;;;5.32;;
74044;SDS011;62389;51.412;5.436;2023-03-19T04:21:01;9.27;;;4.70;;
74044;SDS011;62389;51.412;5.436;2023-03-19T04:23:27;9.73;;;4.88;;
74044;SDS011;62389;51.412;5.436;2023-03-19T04:25:56;10.25;;;5.03;;
74044;SDS011;62389;51.412;5.436;2023-03-19T04:28:31;7.03;;;4.55;;
74044;SDS011;62389;51.412;5.436;2023-03-19T04:31:01;9.13;;;5.13;;
74044;SDS011;62389;51.412;5.436;2023-03-19T04:33:28;6.88;;;4.45;;
74044;SDS011;62389;51.412;5.436;2023-03-19T04:35:54;8.18;;;4.75;;
74044;SDS011;62389;51.412;5.436;2023-03-19T04:38:20;7.95;;;4.82;;
74044;SDS011;62389;51.412;5.436;2023-03-19T04:40:46;8.60;;;4.63;;
74044;SDS011;62389;51.412;5.436;2023-03-19T04:43:12;8.73;;;4.82;;
74044;SDS011;62389;51.412;5.436;2023-03-19T04:45:38;8.27;;;4.70;;
74044;SDS011;62389;51.412;5.436;2023-03-19T04:48:03;8.88;;;5.10;;
74044;SDS011;62389;51.412;5.436;2023-03-19T04:50:29;7.82;;;4.78;;
74044;SDS011;62389;51.412;5.436;2023-03-19T04:52:55;8.55;;;4.93;;
74044;SDS011;62389;51.412;5.436;2023-03-19T04:55:20;8.60;;;4.93;;
74044;SDS011;62389;51.412;5.436;2023-03-19T04:57:45;6.93;;;4.53;;
74044;SDS011;62389;51.412;5.436;2023-03-19T05:00:11;9.57;;;5.80;;
74044;SDS011;62389;51.412;5.436;2023-03-19T05:02:38;10.52;;;4.80;;
74044;SDS011;62389;51.412;5.436;2023-03-19T05:05:05;12.27;;;4.95;;
74044;SDS011;62389;51.412;5.436;2023-03-19T05:07:31;8.50;;;5.43;;
74044;SDS011;62389;51.412;5.436;2023-03-19T05:09:57;8.75;;;4.57;;
74044;SDS011;62389;51.412;5.436;2023-03-19T05:12:22;8.55;;;4.45;;
74044;SDS011;62389;51.412;5.436;2023-03-19T05:14:48;7.68;;;4.63;;
74044;SDS011;62389;51.412;5.436;2023-03-19T05:17:13;8.27;;;4.50;;
74044;SDS011;62389;51.412;5.436;2023-03-19T05:19:39;7.97;;;4.40;;
74044;SDS011;62389;51.412;5.436;2023-03-19T05:22:05;7.28;;;5.32;;
74044;SDS011;62389;51.412;5.436;2023-03-19T05:24:30;10.23;;;4.90;;
74044;SDS011;62389;51.412;5.436;2023-03-19T05:26:55;7.63;;;4.57;;
74044;SDS011;62389;51.412;5.436;2023-03-19T05:29:21;9.45;;;5.28;;
74044;SDS011;62389;51.412;5.436;2023-03-19T05:31:47;10.52;;;5.35;;
74044;SDS011;62389;51.412;5.436;2023-03-19T05:34:12;9.27;;;4.93;;
74044;SDS011;62389;51.412;5.436;2023-03-19T05:36:38;7.97;;;5.00;;
74044;SDS011;62389;51.412;5.436;2023-03-19T05:39:03;8.02;;;4.90;;
74044;SDS011;62389;51.412;5.436;2023-03-19T05:41:30;9.90;;;5.93;;
74044;SDS011;62389;51.412;5.436;2023-03-19T05:43:56;8.63;;;5.57;;
74044;SDS011;62389;51.412;5.436;2023-03-19T05:46:21;10.55;;;5.75;;
74044;SDS011;62389;51.412;5.436;2023-03-19T05:48:47;9.02;;;5.93;;
74044;SDS011;62389;51.412;5.436;2023-03-19T05:51:12;12.65;;;5.68;;
74044;SDS011;62389;51.412;5.436;2023-03-19T05:53:37;9.25;;;5.25;;
74044;SDS011;62389;51.412;5.436;2023-03-19T05:56:03;12.98;;;5.88;;
74044;SDS011;62389;51.412;5.436;2023-03-19T05:58:29;8.52;;;5.70;;
74044;SDS011;62389;51.412;5.436;2023-03-19T06:00:55;11.18;;;6.47;;
74044;SDS011;62389;51.412;5.436;2023-03-19T06:03:20;11.40;;;6.53;;
74044;SDS011;62389;51.412;5.436;2023-03-19T06:05:49;11.18;;;5.95;;
74044;SDS011;62389;51.412;5.436;2023-03-19T06:08:15;11.95;;;7.32;;
74044;SDS011;62389;51.412;5.436;2023-03-19T06:10:41;9.82;;;6.35;;
74044;SDS011;62389;51.412;5.436;2023-03-19T06:13:06;12.25;;;6.82;;
74044;SDS011;62389;51.412;5.436;2023-03-19T06:15:31;8.68;;;5.72;;
74044;SDS011;62389;51.412;5.436;2023-03-19T06:17:57;12.30;;;6.43;;
74044;SDS011;62389;51.412;5.436;2023-03-19T06:20:22;11.68;;;6.90;;
74044;SDS011;62389;51.412;5.436;2023-03-19T06:22:47;9.95;;;6.22;;
74044;SDS011;62389;51.412;5.436;2023-03-19T06:25:13;14.40;;;6.60;;
74044;SDS011;62389;51.412;5.436;2023-03-19T06:27:38;11.68;;;6.15;;
74044;SDS011;62389;51.412;5.436;2023-03-19T06:30:04;10.88;;;6.25;;
74044;SDS011;62389;51.412;5.436;2023-03-19T06:34:56;12.07;;;6.72;;
74044;SDS011;62389;51.412;5.436;2023-03-19T06:37:21;12.68;;;6.95;;
74044;SDS011;62389;51.412;5.436;2023-03-19T06:39:47;9.77;;;6.03;;
74044;SDS011;62389;51.412;5.436;2023-03-19T06:42:13;10.90;;;6.60;;
74044;SDS011;62389;51.412;5.436;2023-03-19T06:44:38;12.68;;;7.03;;
74044;SDS011;62389;51.412;5.436;2023-03-19T06:47:04;9.20;;;6.18;;
74044;SDS011;62389;51.412;5.436;2023-03-19T06:49:29;11.32;;;6.57;;
74044;SDS011;62389;51.412;5.436;2023-03-19T06:51:55;11.45;;;6.25;;
74044;SDS011;62389;51.412;5.436;2023-03-19T06:54:20;12.95;;;6.43;;
74044;SDS011;62389;51.412;5.436;2023-03-19T06:56:46;12.20;;;6.63;;
74044;SDS011;62389;51.412;5.436;2023-03-19T06:59:12;11.52;;;6.28;;
74044;SDS011;62389;51.412;5.436;2023-03-19T07:01:41;11.65;;;6.70;;
74044;SDS011;62389;51.412;5.436;2023-03-19T07:04:07;14.07;;;7.78;;
74044;SDS011;62389;51.412;5.436;2023-03-19T07:06:33;15.27;;;7.78;;
74044;SDS011;62389;51.412;5.436;2023-03-19T07:08:59;13.75;;;7.00;;
74044;SDS011;62389;51.412;5.436;2023-03-19T07:11:25;11.90;;;7.07;;
74044;SDS011;62389;51.412;5.436;2023-03-19T07:13:50;15.82;;;7.57;;
74044;SDS011;62389;51.412;5.436;2023-03-19T07:16:16;15.20;;;7.97;;
74044;SDS011;62389;51.412;5.436;2023-03-19T07:18:42;13.23;;;8.52;;
74044;SDS011;62389;51.412;5.436;2023-03-19T07:21:07;11.35;;;7.00;;
74044;SDS011;62389;51.412;5.436;2023-03-19T07:23:32;12.50;;;7.32;;
74044;SDS011;62389;51.412;5.436;2023-03-19T07:25:58;13.88;;;7.40;;
74044;SDS011;62389;51.412;5.436;2023-03-19T07:28:23;13.05;;;7.70;;
74044;SDS011;62389;51.412;5.436;2023-03-19T07:30:51;13.13;;;7.78;;
74044;SDS011;62389;51.412;5.436;2023-03-19T07:33:18;12.85;;;7.32;;
74044;SDS011;62389;51.412;5.436;2023-03-19T07:35:45;13.82;;;7.65;;
74044;SDS011;62389;51.412;5.436;2023-03-19T07:38:10;12.18;;;7.28;;
74044;SDS011;62389;51.412;5.436;2023-03-19T07:40:35;11.75;;;7.20;;
74044;SDS011;62389;51.412;5.436;2023-03-19T07:43:01;12.98;;;6.93;;
74044;SDS011;62389;51.412;5.436;2023-03-19T07:45:27;13.15;;;7.20;;
74044;SDS011;62389;51.412;5.436;2023-03-19T07:47:52;12.05;;;7.30;;
74044;SDS011;62389;51.412;5.436;2023-03-19T07:50:17;11.80;;;7.43;;
74044;SDS011;62389;51.412;5.436;2023-03-19T07:52:46;11.27;;;7.15;;
74044;SDS011;62389;51.412;5.436;2023-03-19T07:55:12;10.30;;;6.47;;
74044;SDS011;62389;51.412;5.436;2023-03-19T07:57:39;10.75;;;5.90;;
74044;SDS011;62389;51.412;5.436;2023-03-19T08:00:04;10.43;;;6.53;;
74044;SDS011;62389;51.412;5.436;2023-03-19T08:02:30;9.52;;;6.63;;
74044;SDS011;62389;51.412;5.436;2023-03-19T08:04:55;9.68;;;4.70;;
74044;SDS011;62389;51.412;5.436;2023-03-19T08:09:47;7.32;;;3.88;;
74044;SDS011;62389;51.412;5.436;2023-03-19T08:12:13;7.32;;;3.15;;
74044;SDS011;62389;51.412;5.436;2023-03-19T08:14:38;10.35;;;3.53;;
74044;SDS011;62389;51.412;5.436;2023-03-19T08:17:04;6.28;;;3.45;;
74044;SDS011;62389;51.412;5.436;2023-03-19T08:19:29;5.50;;;3.20;;
74044;SDS011;62389;51.412;5.436;2023-03-19T08:21:55;8.10;;;2.83;;
74044;SDS011;62389;51.412;5.436;2023-03-19T08:24:21;7.90;;;3.10;;
74044;SDS011;62389;51.412;5.436;2023-03-19T08:26:46;7.78;;;2.83;;
74044;SDS011;62389;51.412;5.436;2023-03-19T08:29:12;12.52;;;2.90;;
74044;SDS011;62389;51.412;5.436;2023-03-19T08:31:37;7.20;;;2.67;;
74044;SDS011;62389;51.412;5.436;2023-03-19T08:34:03;6.13;;;2.55;;
74044;SDS011;62389;51.412;5.436;2023-03-19T08:36:29;7.57;;;2.90;;
74044;SDS011;62389;51.412;5.436;2023-03-19T08:38:55;9.75;;;2.75;;
74044;SDS011;62389;51.412;5.436;2023-03-19T08:41:21;9.68;;;2.58;;
74044;SDS011;62389;51.412;5.436;2023-03-19T08:43:47;5.45;;;2.22;;
74044;SDS011;62389;51.412;5.436;2023-03-19T08:46:13;6.40;;;2.30;;
74044;SDS011;62389;51.412;5.436;2023-03-19T08:48:39;12.48;;;3.75;;
74044;SDS011;62389;51.412;5.436;2023-03-19T08:51:04;8.00;;;2.67;;
74044;SDS011;62389;51.412;5.436;2023-03-19T08:53:30;5.50;;;2.55;;
74044;SDS011;62389;51.412;5.436;2023-03-19T08:56:00;9.38;;;3.38;;
74044;SDS011;62389;51.412;5.436;2023-03-19T08:58:28;6.10;;;3.30;;
74044;SDS011;62389;51.412;5.436;2023-03-19T09:00:59;7.32;;;2.95;;
74044;SDS011;62389;51.412;5.436;2023-03-19T09:03:29;10.20;;;3.30;;
74044;SDS011;62389;51.412;5.436;2023-03-19T09:05:58;8.77;;;2.50;;
74044;SDS011;62389;51.412;5.436;2023-03-19T09:08:25;5.68;;;2.85;;
74044;SDS011;62389;51.412;5.436;2023-03-19T09:10:52;7.72;;;2.95;;
74044;SDS011;62389;51.412;5.436;2023-03-19T09:13:18;7.63;;;2.95;;
74044;SDS011;62389;51.412;5.436;2023-03-19T09:15:43;8.65;;;3.00;;
74044;SDS011;62389;51.412;5.436;2023-03-19T09:18:08;7.43;;;2.38;;
74044;SDS011;62389;51.412;5.436;2023-03-19T09:20:34;7.40;;;2.50;;
74044;SDS011;62389;51.412;5.436;2023-03-19T09:22:59;5.35;;;2.70;;
74044;SDS011;62389;51.412;5.436;2023-03-19T09:25:25;9.45;;;2.63;;
74044;SDS011;62389;51.412;5.436;2023-03-19T09:27:50;7.13;;;2.63;;
74044;SDS011;62389;51.412;5.436;2023-03-19T09:30:15;8.77;;;2.78;;
74044;SDS011;62389;51.412;5.436;2023-03-19T09:32:41;10.10;;;2.80;;
74044;SDS011;62389;51.412;5.436;2023-03-19T09:35:07;8.10;;;2.50;;
74044;SDS011;62389;51.412;5.436;2023-03-19T09:37:32;7.88;;;3.17;;
74044;SDS011;62389;51.412;5.436;2023-03-19T09:39:58;9.25;;;2.80;;
74044;SDS011;62389;51.412;5.436;2023-03-19T09:42:26;7.88;;;2.35;;
74044;SDS011;62389;51.412;5.436;2023-03-19T09:45:13;8.80;;;2.65;;
74044;SDS011;62389;51.412;5.436;2023-03-19T09:47:42;7.97;;;2.63;;
74044;SDS011;62389;51.412;5.436;2023-03-19T09:50:14;7.47;;;2.97;;
74044;SDS011;62389;51.412;5.436;2023-03-19T09:57:47;29.38;;;4.10;;
74044;SDS011;62389;51.412;5.436;2023-03-19T10:16:29;5.00;;;2.30;;
74044;SDS011;62389;51.412;5.436;2023-03-19T10:18:58;6.82;;;2.13;;
74044;SDS011;62389;51.412;5.436;2023-03-19T10:21:29;8.10;;;2.63;;
74044;SDS011;62389;51.412;5.436;2023-03-19T10:24:04;7.85;;;2.47;;
74044;SDS011;62389;51.412;5.436;2023-03-19T10:26:36;8.73;;;2.85;;
74044;SDS011;62389;51.412;5.436;2023-03-19T10:31:45;9.95;;;2.20;;
74044;SDS011;62389;51.412;5.436;2023-03-19T10:39:45;7.55;;;1.58;;
74044;SDS011;62389;51.412;5.436;2023-03-19T10:47:50;4.78;;;1.90;;
74044;SDS011;62389;51.412;5.436;2023-03-19T10:50:20;6.13;;;1.60;;
74044;SDS011;62389;51.412;5.436;2023-03-19T10:53:04;4.60;;;1.67;;
74044;SDS011;62389;51.412;5.436;2023-03-19T10:55:52;8.07;;;1.63;;
74044;SDS011;62389;51.412;5.436;2023-03-19T10:58:21;5.57;;;2.40;;
74044;SDS011;62389;51.412;5.436;2023-03-19T11:00:55;6.03;;;2.10;;
74044;SDS011;62389;51.412;5.436;2023-03-19T11:03:38;6.65;;;1.90;;
74044;SDS011;62389;51.412;5.436;2023-03-19T11:08:55;7.68;;;1.35;;
74044;SDS011;62389;51.412;5.436;2023-03-19T11:11:31;8.50;;;2.17;;
74044;SDS011;62389;51.412;5.436;2023-03-19T11:14:08;8.77;;;1.55;;
74044;SDS011;62389;51.412;5.436;2023-03-19T11:16:50;3.97;;;1.40;;
74044;SDS011;62389;51.412;5.436;2023-03-19T11:19:38;5.97;;;1.40;;
74044;SDS011;62389;51.412;5.436;2023-03-19T11:24:47;6.03;;;2.15;;
74044;SDS011;62389;51.412;5.436;2023-03-19T11:27:14;4.70;;;1.52;;
74044;SDS011;62389;51.412;5.436;2023-03-19T11:29:40;5.18;;;1.50;;
74044;SDS011;62389;51.412;5.436;2023-03-19T11:32:21;5.38;;;2.60;;
74044;SDS011;62389;51.412;5.436;2023-03-19T11:35:19;22.23;;;2.97;;
74044;SDS011;62389;51.412;5.436;2023-03-19T11:37:52;30.23;;;3.35;;
74044;SDS011;62389;51.412;5.436;2023-03-19T11:43:25;10.30;;;2.10;;
74044;SDS011;62389;51.412;5.436;2023-03-19T11:46:17;9.02;;;2.45;;
74044;SDS011;62389;51.412;5.436;2023-03-19T11:51:31;8.20;;;3.05;;
74044;SDS011;62389;51.412;5.436;2023-03-19T11:54:05;6.93;;;2.60;;
74044;SDS011;62389;51.412;5.436;2023-03-19T11:56:38;8.02;;;2.90;;
74044;SDS011;62389;51.412;5.436;2023-03-19T11:59:12;7.53;;;3.47;;
74044;SDS011;62389;51.412;5.436;2023-03-19T12:07:08;6.43;;;3.20;;
74044;SDS011;62389;51.412;5.436;2023-03-19T12:12:58;12.85;;;4.60;;
74044;SDS011;62389;51.412;5.436;2023-03-19T12:15:50;8.93;;;4.40;;
74044;SDS011;62389;51.412;5.436;2023-03-19T12:31:56;6.85;;;3.30;;
74044;SDS011;62389;51.412;5.436;2023-03-19T12:40:11;6.93;;;2.47;;
74044;SDS011;62389;51.412;5.436;2023-03-19T12:43:00;6.00;;;3.53;;
74044;SDS011;62389;51.412;5.436;2023-03-19T12:48:26;6.88;;;3.85;;
74044;SDS011;62389;51.412;5.436;2023-03-19T12:50:58;7.32;;;3.40;;
74044;SDS011;62389;51.412;5.436;2023-03-19T12:53:42;29.13;;;5.03;;
74044;SDS011;62389;51.412;5.436;2023-03-19T12:56:18;7.85;;;3.88;;
74044;SDS011;62389;51.412;5.436;2023-03-19T12:59:00;7.85;;;3.50;;
74044;SDS011;62389;51.412;5.436;2023-03-19T13:01:36;5.28;;;3.90;;
74044;SDS011;62389;51.412;5.436;2023-03-19T13:04:10;7.50;;;4.55;;
74044;SDS011;62389;51.412;5.436;2023-03-19T13:06:53;9.25;;;5.10;;
74044;SDS011;62389;51.412;5.436;2023-03-19T13:14:57;11.48;;;6.13;;
74044;SDS011;62389;51.412;5.436;2023-03-19T13:17:35;11.25;;;6.45;;
74044;SDS011;62389;51.412;5.436;2023-03-19T13:20:23;14.68;;;7.63;;
74044;SDS011;62389;51.412;5.436;2023-03-19T13:23:01;11.38;;;7.82;;
74044;SDS011;62389;51.412;5.436;2023-03-19T13:25:38;11.60;;;6.68;;
74044;SDS011;62389;51.412;5.436;2023-03-19T13:28:10;11.82;;;6.07;;
74044;SDS011;62389;51.412;5.436;2023-03-19T13:30:56;15.10;;;9.10;;
74044;SDS011;62389;51.412;5.436;2023-03-19T13:33:27;12.30;;;8.90;;
74044;SDS011;62389;51.412;5.436;2023-03-19T13:35:53;12.18;;;7.10;;
74044;SDS011;62389;51.412;5.436;2023-03-19T13:43:50;13.75;;;6.35;;
74044;SDS011;62389;51.412;5.436;2023-03-19T13:59:35;16.88;;;9.93;;
74044;SDS011;62389;51.412;5.436;2023-03-19T14:07:21;33.97;;;9.95;;
74044;SDS011;62389;51.412;5.436;2023-03-19T14:17:25;17.33;;;9.23;;
74044;SDS011;62389;51.412;5.436;2023-03-19T14:19:55;20.85;;;9.65;;
74044;SDS011;62389;51.412;5.436;2023-03-19T14:31:17;16.77;;;10.10;;
74044;SDS011;62389;51.412;5.436;2023-03-19T14:33:55;190.15;;;25.58;;
74044;SDS011;62389;51.412;5.436;2023-03-19T14:36:41;19.00;;;10.60;;
74044;SDS011;62389;51.412;5.436;2023-03-19T14:39:15;22.45;;;11.07;;
74044;SDS011;62389;51.412;5.436;2023-03-19T14:41:45;17.63;;;11.15;;
74044;SDS011;62389;51.412;5.436;2023-03-19T14:44:22;18.00;;;10.30;;
74044;SDS011;62389;51.412;5.436;2023-03-19T14:52:21;15.55;;;10.32;;
74044;SDS011;62389;51.412;5.436;2023-03-19T14:54:54;18.33;;;9.48;;
74044;SDS011;62389;51.412;5.436;2023-03-19T14:57:26;14.45;;;9.68;;
74044;SDS011;62389;51.412;5.436;2023-03-19T14:59:53;14.80;;;9.57;;
74044;SDS011;62389;51.412;5.436;2023-03-19T15:04:56;14.25;;;7.78;;
74044;SDS011;62389;51.412;5.436;2023-03-19T15:07:29;18.40;;;8.45;;
74044;SDS011;62389;51.412;5.436;2023-03-19T15:10:06;14.73;;;7.88;;
74044;SDS011;62389;51.412;5.436;2023-03-19T15:15:41;12.82;;;7.30;;
74044;SDS011;62389;51.412;5.436;2023-03-19T15:18:19;12.75;;;6.90;;
74044;SDS011;62389;51.412;5.436;2023-03-19T15:20:46;13.98;;;8.02;;
74044;SDS011;62389;51.412;5.436;2023-03-19T15:23:18;16.60;;;8.13;;
74044;SDS011;62389;51.412;5.436;2023-03-19T15:25:49;13.90;;;7.10;;
74044;SDS011;62389;51.412;5.436;2023-03-19T15:28:17;15.32;;;7.50;;
74044;SDS011;62389;51.412;5.436;2023-03-19T15:30:44;13.10;;;7.40;;
74044;SDS011;62389;51.412;5.436;2023-03-19T15:33:22;33.47;;;10.38;;
74044;SDS011;62389;51.412;5.436;2023-03-19T15:35:56;26.92;;;7.78;;
74044;SDS011;62389;51.412;5.436;2023-03-19T15:38:26;15.68;;;8.38;;
74044;SDS011;62389;51.412;5.436;2023-03-19T15:40:58;14.45;;;7.97;;
74044;SDS011;62389;51.412;5.436;2023-03-19T15:43:26;14.43;;;8.05;;
74044;SDS011;62389;51.412;5.436;2023-03-19T15:45:52;19.42;;;11.05;;
74044;SDS011;62389;51.412;5.436;2023-03-19T15:48:20;18.58;;;10.95;;
74044;SDS011;62389;51.412;5.436;2023-03-19T15:50:55;15.80;;;9.25;;
74044;SDS011;62389;51.412;5.436;2023-03-19T15:53:24;16.45;;;10.35;;
74044;SDS011;62389;51.412;5.436;2023-03-19T15:55:52;24.08;;;12.25;;
74044;SDS011;62389;51.412;5.436;2023-03-19T15:58:23;19.27;;;11.15;;
74044;SDS011;62389;51.412;5.436;2023-03-19T16:00:52;20.95;;;11.27;;
74044;SDS011;62389;51.412;5.436;2023-03-19T16:03:30;19.98;;;11.38;;
74044;SDS011;62389;51.412;5.436;2023-03-19T16:06:02;19.92;;;11.07;;
74044;SDS011;62389;51.412;5.436;2023-03-19T16:08:30;21.33;;;12.07;;
74044;SDS011;62389;51.412;5.436;2023-03-19T16:14:09;25.55;;;14.13;;
74044;SDS011;62389;51.412;5.436;2023-03-19T16:16:35;22.90;;;11.55;;
74044;SDS011;62389;51.412;5.436;2023-03-19T16:19:03;22.13;;;11.35;;
74044;SDS011;62389;51.412;5.436;2023-03-19T16:21:36;19.20;;;10.48;;
74044;SDS011;62389;51.412;5.436;2023-03-19T16:28:59;21.08;;;10.40;;
74044;SDS011;62389;51.412;5.436;2023-03-19T16:31:29;18.48;;;9.35;;
74044;SDS011;62389;51.412;5.436;2023-03-19T16:34:00;18.15;;;8.63;;
74044;SDS011;62389;51.412;5.436;2023-03-19T16:36:30;16.15;;;7.63;;
74044;SDS011;62389;51.412;5.436;2023-03-19T16:39:11;16.23;;;7.57;;
74044;SDS011;62389;51.412;5.436;2023-03-19T16:41:55;12.75;;;7.00;;
74044;SDS011;62389;51.412;5.436;2023-03-19T16:44:32;12.85;;;6.20;;
74044;SDS011;62389;51.412;5.436;2023-03-19T16:46:57;12.40;;;6.00;;
74044;SDS011;62389;51.412;5.436;2023-03-19T16:49:23;11.10;;;6.40;;
74044;SDS011;62389;51.412;5.436;2023-03-19T16:51:48;10.75;;;5.55;;
74044;SDS011;62389;51.412;5.436;2023-03-19T16:54:13;9.50;;;5.75;;
74044;SDS011;62389;51.412;5.436;2023-03-19T16:56:39;11.65;;;5.88;;
74044;SDS011;62389;51.412;5.436;2023-03-19T16:59:05;10.90;;;5.60;;
74044;SDS011;62389;51.412;5.436;2023-03-19T17:01:30;10.80;;;6.15;;
74044;SDS011;62389;51.412;5.436;2023-03-19T17:03:56;9.52;;;5.40;;
74044;SDS011;62389;51.412;5.436;2023-03-19T17:06:22;11.52;;;5.70;;
74044;SDS011;62389;51.412;5.436;2023-03-19T17:08:48;13.05;;;6.55;;
74044;SDS011;62389;51.412;5.436;2023-03-19T17:11:19;12.35;;;6.45;;
74044;SDS011;62389;51.412;5.436;2023-03-19T17:13:49;12.07;;;6.38;;
74044;SDS011;62389;51.412;5.436;2023-03-19T17:16:16;11.50;;;6.35;;
74044;SDS011;62389;51.412;5.436;2023-03-19T17:18:41;13.40;;;6.40;;
74044;SDS011;62389;51.412;5.436;2023-03-19T17:26:53;15.27;;;7.10;;